Skip Navigation Links
NOAA logo - Click to go to the NOAA homepage
NOAA's National Weather Service
Alaska Aviation Weather Unit
  NWS logo - Click to go to the NWS homepage
Left Navbar Graphic     09 AKDT = 17 GMT

   
NOAA is celebrating 200 years of science, service, and stewardship. Visit the NOAA 200th celebration Web site to learn more.
USA.gov is the U.S. Government's official Web portal to all Federal, state and local government Web resources and services.
Facebook
NWS on Facebook

Important Change Regarding the AAWU Web Presence

 

Over the last several months, the AAWU has been working to navigate its webpages to a nationally supported server. Security, as well as other needs, have necessitated the change.  In the process, we have made an effort to enhance the functionality of our website, as well as some of our products. As of June 20, 2017, aawu.arh.noaa.gov will be discontinued. The new AAWU web address is weather.gov/aawu. It is now live and will run in-parallel with the old site until it is discontinued. Please send any feedback or questions regarding the new webpages to nws.ar.aawu.webauthors@noaa.gov.  Thank you for your patience during this time of transition.
AAWU Home :: Display TAF Add Bookmark
SPECI PAMY 271104Z AUTO 25005KT 6SM UP BR SCT004 BKN020 OVC031 M01/M01
     A2987 RMK AO2 UPB04SNE04 P0000 FZRANO=

SPECI PAMY 271115Z AUTO 24005KT 2 1/2SM -SN BR FEW004 BKN009 OVC031
     00/M01 A2987 RMK AO2 VIS 1 3/4V4 UPB04E06SNE04B06 P0000
     FZRANO=

SPECI PAMY 271123Z AUTO 24006KT 6SM -SN BR BKN007 BKN019 OVC031 00/M01
     A2987 RMK AO2 UPB04E06SNE04B06 CIG 005V009 P0000 FZRANO=

METAR PAMY 271156Z AUTO 24006KT 6SM -SN BR OVC005 00/M01 A2987 RMK AO2
     UPB04E06B27E35SNE04B06E27B35 CIG 004V009 SLP118 P0000 60000
     70001 T00001006 10011 21017 51004 FZRANO=

METAR PAMY 271256Z AUTO 30009KT 10SM UP OVC003 00/00 A2987 RMK AO2
     UPB01E06B41SNE01B06E41 CIG 003V007 SLP118 P0000 T00000000
     FZRANO=

SPECI PAMY 271328Z AUTO 29008KT 7SM OVC005 01/00 A2988 RMK AO2 UPE03 CIG
     003V010 P0000 FZRANO=

SPECI PAMY 271533Z AUTO 29008KT 7SM -SN BKN009 BKN013 OVC031 01/00 A2988
     RMK AO2 CIG 008V011 P0000 FZRANO=

PAMY 271553Z AUTO 29009KT 5SM -SN BR OVC011 01/01 A2988 RMK AO2
     P0000 FZRANO=

PAMY 271556Z AUTO 28008KT 5SM -SN BR BKN011 OVC017 01/01 A2988 RMK
     AO2 SLP122 P0000 T00060006 FZRANO=

METAR PAMY 271656Z AUTO 26008KT 10SM -RA BKN010 OVC029 01/01 A2989 RMK
     AO2 RAB47SNE27 CIG 009V014 SLP123 P0000 T00110006 FZRANO=

SPECI PAMY 271718Z AUTO 27009KT 10SM -RA BKN010 OVC029 01/01 A2989 RMK
     AO2 P0000 FZRANO=

SPECI PAMY 271725Z AUTO 27009KT 10SM FEW010 OVC029 02/01 A2989 RMK AO2
     RAE25 P0000 FZRANO=


NOAA's National Weather Service
Alaska Aviation Weather Unit
6930 Sand Lake Road
Anchorage, AK 99502-1845
Disclaimer
Credits
Glossary
Privacy Policy
About Us
Career Opportunities
Contact AAWU Internet Services Site last modified: April, 17th 2012